Aracatuba, Brazil
Current Conditions -  °F | °C
As of 10:00 PM on Thursday 18 Dec 2014 (Local Time) from SBSR Reporting Station
Few Clouds Few Clouds  
Wind Chill: 75°   Ceiling: Unl
Heat Index: 75°   Visibility: 6mi
Dew Point: 66°   Wind: 7mph
Humidity: 73%   Direction: 360°N
Pressure: 29.88"   Gusts: NA
Location:  21.21°S, 50.45°W
Report Text: SBSR 190000Z 36006KT 9999 FEW040TCU 24/19 Q1012
Loading
Personal Weather Stations






























Interactive Weather Map New forecast layout! Learn more

10-Day Weather Forecast

Advertisements
Track Severe Weather on mobile